Fort Raleigh City, North Carolina
Current Conditions -  °F | °C
As of 1:55 PM on Thursday 30 Oct 2014 (Local Time) from KMQI Reporting Station
Overcast Overcast  
Wind Chill: 64°   Ceiling: 4400
Heat Index: 64°   Visibility: 10mi
Dew Point: 47°   Wind: 13mph
Humidity: 53%   Direction: 20°NNE
Pressure: 29.98"   Gusts: NA
Location:  35.8834°N, 75.6616°W
Report Text: KMQI 301755Z AUTO 02011KT 10SM OVC044 18/08 A2998 RMK AO2 T01800082 10185 20146
Loading
Personal Weather Stations






























Interactive Weather Map
Tropical Storm Tracking
New forecast layout! Learn more

10-Day Weather Forecast

Advertisements
Track Severe Weather on mobile